Etusivu
METAR-TAF:

METAR-TAF

Lentoasemat :

Southern Wisconsin Regional Airport

Janesville, Wisconsin, Yhdysvallat

Leveyspiiri: 42-37N, Pituuspiiri: 089-02W, korkeus merenpinnasta: 246 m

Tämänhetkinen sää

Tämä raportti tehtiin 45 minuuttia sitten, kello 12.45 UTC
Tuuli 4 kn lännestä
Lämpötila 14°C
Kosteus 100%
Ilmanpaine 1016 hPa
Näkyvyys: 16.1 km
selkeää

METAR: KJVL 231245Z 28004KT 10SM SKC 14/14 A3000

Aika: 08:30 (13:30 UTC)


TAF: puuttuu

Säähavainnot ja -ennusteet yli 4000 lentoasemalta (METAR- ja TAF-raportit).

Käytössä olevat sääasemat on merkitty karttaan keltaisilla ja punaisilla pisteillä.

Aseta hiiri pisteen päälle nähdäksesi sääaseman nimen.

Klikkaa sitten nähdäksesi säähavainnot ja -ennusteet.

Kartan vaihtaminen: klikkaa mustalla rastilla varustettuja vihreitä pisteitä, niin voit zoomata sisään; viivalla varustettua vihreää pistettä, niin voit zoomata ulos tai vihreitä nuolia, niin pääset viereisille kartoille.


METAR-TAF: